sensor_id;sensor_type;location;lat;lon;timestamp;P1;durP1;ratioP1;P2;durP2;ratioP2
18340;SDS011;9296;48.084;16.352;2023-10-31T08:46:24;0.28;;;0.20;;
18340;SDS011;9296;48.084;16.352;2023-10-31T08:49:28;1.17;;;0.25;;
18340;SDS011;9296;48.084;16.352;2023-10-31T08:52:19;0.45;;;0.20;;
18340;SDS011;9296;48.084;16.352;2023-10-31T08:58:01;0.25;;;0.20;;
18340;SDS011;9296;48.084;16.352;2023-10-31T09:00:35;1.20;;;0.30;;
18340;SDS011;9296;48.084;16.352;2023-10-31T09:03:28;1.92;;;0.30;;
18340;SDS011;9296;48.084;16.352;2023-10-31T09:06:38;1.00;;;0.20;;
18340;SDS011;9296;48.084;16.352;2023-10-31T09:09:16;0.80;;;0.20;;
18340;SDS011;9296;48.084;16.352;2023-10-31T09:12:29;4.65;;;0.45;;
18340;SDS011;9296;48.084;16.352;2023-10-31T09:15:07;0.55;;;0.20;;
18340;SDS011;9296;48.084;16.352;2023-10-31T09:17:41;0.20;;;0.10;;
18340;SDS011;9296;48.084;16.352;2023-10-31T09:23:36;0.50;;;0.50;;
18340;SDS011;9296;48.084;16.352;2023-10-31T09:26:28;2.05;;;0.30;;
18340;SDS011;9296;48.084;16.352;2023-10-31T09:29:10;2.30;;;0.75;;
18340;SDS011;9296;48.084;16.352;2023-10-31T09:32:04;0.70;;;0.50;;
18340;SDS011;9296;48.084;16.352;2023-10-31T09:34:52;1.20;;;0.50;;
18340;SDS011;9296;48.084;16.352;2023-10-31T09:37:43;0.68;;;0.38;;
18340;SDS011;9296;48.084;16.352;2023-10-31T09:40:20;0.32;;;0.32;;
18340;SDS011;9296;48.084;16.352;2023-10-31T09:42:57;1.48;;;0.40;;
18340;SDS011;9296;48.084;16.352;2023-10-31T09:45:26;1.20;;;0.40;;
18340;SDS011;9296;48.084;16.352;2023-10-31T09:47:55;1.95;;;0.47;;
18340;SDS011;9296;48.084;16.352;2023-10-31T09:50:39;1.38;;;0.47;;
18340;SDS011;9296;48.084;16.352;2023-10-31T09:53:08;1.10;;;0.65;;
18340;SDS011;9296;48.084;16.352;2023-10-31T09:58:52;1.27;;;0.70;;
18340;SDS011;9296;48.084;16.352;2023-10-31T10:01:24;2.15;;;0.95;;
18340;SDS011;9296;48.084;16.352;2023-10-31T10:03:52;0.68;;;0.50;;
18340;SDS011;9296;48.084;16.352;2023-10-31T10:06:23;1.45;;;0.68;;
18340;SDS011;9296;48.084;16.352;2023-10-31T10:08:51;1.27;;;0.60;;
18340;SDS011;9296;48.084;16.352;2023-10-31T10:11:19;0.57;;;0.50;;
18340;SDS011;9296;48.084;16.352;2023-10-31T10:13:46;2.60;;;1.00;;
18340;SDS011;9296;48.084;16.352;2023-10-31T10:16:28;3.40;;;0.90;;
18340;SDS011;9296;48.084;16.352;2023-10-31T10:18:56;3.05;;;1.33;;
18340;SDS011;9296;48.084;16.352;2023-10-31T10:29:54;2.28;;;1.08;;
18340;SDS011;9296;48.084;16.352;2023-10-31T10:35:01;1.55;;;0.70;;
18340;SDS011;9296;48.084;16.352;2023-10-31T10:51:52;2.40;;;1.15;;
18340;SDS011;9296;48.084;16.352;2023-10-31T10:54:34;2.35;;;1.05;;
18340;SDS011;9296;48.084;16.352;2023-10-31T10:57:37;2.58;;;1.10;;
18340;SDS011;9296;48.084;16.352;2023-10-31T11:00:10;3.03;;;1.05;;
18340;SDS011;9296;48.084;16.352;2023-10-31T11:02:42;1.13;;;0.90;;
18340;SDS011;9296;48.084;16.352;2023-10-31T11:07:55;1.98;;;1.00;;
18340;SDS011;9296;48.084;16.352;2023-10-31T11:13:48;2.38;;;1.73;;
18340;SDS011;9296;48.084;16.352;2023-10-31T11:46:23;1.85;;;0.77;;
18340;SDS011;9296;48.084;16.352;2023-10-31T11:48:52;1.02;;;0.68;;
18340;SDS011;9296;48.084;16.352;2023-10-31T11:51:30;1.30;;;0.73;;
18340;SDS011;9296;48.084;16.352;2023-10-31T12:25:05;0.52;;;0.32;;
18340;SDS011;9296;48.084;16.352;2023-10-31T12:27:44;0.88;;;0.45;;
18340;SDS011;9296;48.084;16.352;2023-10-31T12:30:12;2.28;;;0.45;;
18340;SDS011;9296;48.084;16.352;2023-10-31T12:32:42;1.48;;;0.32;;
18340;SDS011;9296;48.084;16.352;2023-10-31T12:35:10;1.55;;;0.60;;
18340;SDS011;9296;48.084;16.352;2023-10-31T12:37:43;1.45;;;0.50;;
18340;SDS011;9296;48.084;16.352;2023-10-31T12:48:56;0.50;;;0.38;;
18340;SDS011;9296;48.084;16.352;2023-10-31T12:51:24;2.13;;;0.32;;
18340;SDS011;9296;48.084;16.352;2023-10-31T12:54:15;0.73;;;0.30;;
18340;SDS011;9296;48.084;16.352;2023-10-31T12:59:41;0.70;;;0.40;;
18340;SDS011;9296;48.084;16.352;2023-10-31T13:02:09;1.45;;;0.50;;
18340;SDS011;9296;48.084;16.352;2023-10-31T13:04:38;1.38;;;0.52;;
18340;SDS011;9296;48.084;16.352;2023-10-31T13:07:12;1.90;;;0.63;;
18340;SDS011;9296;48.084;16.352;2023-10-31T13:09:39;0.57;;;0.45;;
18340;SDS011;9296;48.084;16.352;2023-10-31T13:12:07;0.60;;;0.40;;
18340;SDS011;9296;48.084;16.352;2023-10-31T13:14:36;1.40;;;0.50;;
18340;SDS011;9296;48.084;16.352;2023-10-31T13:17:05;1.25;;;0.50;;
18340;SDS011;9296;48.084;16.352;2023-10-31T13:19:32;0.82;;;0.35;;
18340;SDS011;9296;48.084;16.352;2023-10-31T13:22:01;1.10;;;0.30;;
18340;SDS011;9296;48.084;16.352;2023-10-31T13:24:29;1.00;;;0.40;;
18340;SDS011;9296;48.084;16.352;2023-10-31T13:26:56;1.52;;;0.55;;
18340;SDS011;9296;48.084;16.352;2023-10-31T13:29:24;1.95;;;0.50;;
18340;SDS011;9296;48.084;16.352;2023-10-31T13:31:53;0.55;;;0.50;;
18340;SDS011;9296;48.084;16.352;2023-10-31T13:34:21;1.00;;;0.52;;
18340;SDS011;9296;48.084;16.352;2023-10-31T13:36:50;1.80;;;0.57;;
18340;SDS011;9296;48.084;16.352;2023-10-31T13:39:19;1.23;;;0.52;;
18340;SDS011;9296;48.084;16.352;2023-10-31T13:41:47;1.40;;;0.50;;
18340;SDS011;9296;48.084;16.352;2023-10-31T13:44:14;0.68;;;0.40;;
18340;SDS011;9296;48.084;16.352;2023-10-31T13:46:42;1.83;;;0.60;;
18340;SDS011;9296;48.084;16.352;2023-10-31T13:49:12;0.63;;;0.30;;
18340;SDS011;9296;48.084;16.352;2023-10-31T13:51:41;0.75;;;0.40;;
18340;SDS011;9296;48.084;16.352;2023-10-31T13:54:08;0.57;;;0.50;;
18340;SDS011;9296;48.084;16.352;2023-10-31T13:56:38;0.60;;;0.40;;
18340;SDS011;9296;48.084;16.352;2023-10-31T13:59:07;0.68;;;0.45;;
18340;SDS011;9296;48.084;16.352;2023-10-31T14:01:35;1.45;;;0.60;;
18340;SDS011;9296;48.084;16.352;2023-10-31T14:04:02;1.27;;;0.40;;
18340;SDS011;9296;48.084;16.352;2023-10-31T14:06:30;0.80;;;0.47;;
18340;SDS011;9296;48.084;16.352;2023-10-31T14:08:58;1.15;;;0.50;;
18340;SDS011;9296;48.084;16.352;2023-10-31T14:11:27;0.43;;;0.40;;
18340;SDS011;9296;48.084;16.352;2023-10-31T14:13:55;0.60;;;0.40;;
18340;SDS011;9296;48.084;16.352;2023-10-31T14:16:27;0.93;;;0.43;;
18340;SDS011;9296;48.084;16.352;2023-10-31T14:18:59;0.73;;;0.50;;
18340;SDS011;9296;48.084;16.352;2023-10-31T14:21:28;1.85;;;0.70;;
18340;SDS011;9296;48.084;16.352;2023-10-31T14:24:26;1.20;;;0.40;;
18340;SDS011;9296;48.084;16.352;2023-10-31T14:26:53;0.52;;;0.40;;
18340;SDS011;9296;48.084;16.352;2023-10-31T14:29:29;0.63;;;0.50;;
18340;SDS011;9296;48.084;16.352;2023-10-31T14:32:16;1.20;;;0.60;;
18340;SDS011;9296;48.084;16.352;2023-10-31T14:34:46;0.75;;;0.43;;
18340;SDS011;9296;48.084;16.352;2023-10-31T14:37:13;0.60;;;0.60;;
18340;SDS011;9296;48.084;16.352;2023-10-31T14:42:19;1.52;;;0.52;;
18340;SDS011;9296;48.084;16.352;2023-10-31T14:50:11;1.00;;;0.50;;
18340;SDS011;9296;48.084;16.352;2023-10-31T14:52:53;0.60;;;0.57;;
18340;SDS011;9296;48.084;16.352;2023-10-31T15:00:36;1.15;;;0.63;;
18340;SDS011;9296;48.084;16.352;2023-10-31T15:14:04;0.73;;;0.55;;
18340;SDS011;9296;48.084;16.352;2023-10-31T15:16:34;0.60;;;0.60;;
18340;SDS011;9296;48.084;16.352;2023-10-31T15:21:56;1.50;;;0.60;;
18340;SDS011;9296;48.084;16.352;2023-10-31T15:27:24;0.90;;;0.60;;
18340;SDS011;9296;48.084;16.352;2023-10-31T15:32:44;2.28;;;1.40;;
18340;SDS011;9296;48.084;16.352;2023-10-31T15:35:12;1.58;;;0.80;;
18340;SDS011;9296;48.084;16.352;2023-10-31T15:37:42;1.25;;;0.80;;
18340;SDS011;9296;48.084;16.352;2023-10-31T15:45:12;1.70;;;0.80;;
18340;SDS011;9296;48.084;16.352;2023-10-31T15:47:39;0.90;;;0.75;;
18340;SDS011;9296;48.084;16.352;2023-10-31T15:53:14;2.42;;;0.90;;
18340;SDS011;9296;48.084;16.352;2023-10-31T15:55:43;1.20;;;0.88;;
18340;SDS011;9296;48.084;16.352;2023-10-31T16:01:01;2.05;;;0.90;;
18340;SDS011;9296;48.084;16.352;2023-10-31T16:06:19;1.10;;;0.93;;
18340;SDS011;9296;48.084;16.352;2023-10-31T16:14:50;1.77;;;1.10;;
18340;SDS011;9296;48.084;16.352;2023-10-31T16:17:18;2.75;;;1.40;;
18340;SDS011;9296;48.084;16.352;2023-10-31T16:19:52;2.08;;;1.30;;
18340;SDS011;9296;48.084;16.352;2023-10-31T16:22:20;2.25;;;1.23;;
18340;SDS011;9296;48.084;16.352;2023-10-31T16:24:50;2.67;;;1.50;;
18340;SDS011;9296;48.084;16.352;2023-10-31T16:35:23;3.63;;;1.77;;
18340;SDS011;9296;48.084;16.352;2023-10-31T16:37:53;4.20;;;2.03;;
18340;SDS011;9296;48.084;16.352;2023-10-31T16:40:23;3.75;;;2.05;;
18340;SDS011;9296;48.084;16.352;2023-10-31T16:46:19;2.55;;;1.27;;
18340;SDS011;9296;48.084;16.352;2023-10-31T16:48:47;1.90;;;1.10;;
18340;SDS011;9296;48.084;16.352;2023-10-31T16:51:16;1.52;;;1.05;;
18340;SDS011;9296;48.084;16.352;2023-10-31T16:53:44;2.83;;;1.00;;
18340;SDS011;9296;48.084;16.352;2023-10-31T16:56:17;1.40;;;0.70;;
18340;SDS011;9296;48.084;16.352;2023-10-31T16:58:58;3.00;;;1.20;;
18340;SDS011;9296;48.084;16.352;2023-10-31T17:01:25;3.13;;;1.05;;
18340;SDS011;9296;48.084;16.352;2023-10-31T17:03:53;2.05;;;0.82;;
18340;SDS011;9296;48.084;16.352;2023-10-31T17:06:37;2.75;;;1.00;;
18340;SDS011;9296;48.084;16.352;2023-10-31T17:09:08;1.85;;;0.88;;
18340;SDS011;9296;48.084;16.352;2023-10-31T17:11:36;2.67;;;1.00;;
18340;SDS011;9296;48.084;16.352;2023-10-31T17:44:32;2.65;;;1.00;;
18340;SDS011;9296;48.084;16.352;2023-10-31T17:47:19;2.63;;;0.88;;
18340;SDS011;9296;48.084;16.352;2023-10-31T17:50:07;2.03;;;0.90;;
18340;SDS011;9296;48.084;16.352;2023-10-31T17:52:39;2.25;;;0.90;;
18340;SDS011;9296;48.084;16.352;2023-10-31T18:01:01;2.88;;;1.13;;
18340;SDS011;9296;48.084;16.352;2023-10-31T18:03:43;1.38;;;0.90;;
18340;SDS011;9296;48.084;16.352;2023-10-31T18:08:51;1.67;;;0.80;;
18340;SDS011;9296;48.084;16.352;2023-10-31T18:20:37;1.40;;;0.75;;
18340;SDS011;9296;48.084;16.352;2023-10-31T18:23:04;4.03;;;1.17;;
18340;SDS011;9296;48.084;16.352;2023-10-31T18:25:31;3.15;;;1.10;;
18340;SDS011;9296;48.084;16.352;2023-10-31T18:27:59;2.38;;;1.05;;
18340;SDS011;9296;48.084;16.352;2023-10-31T18:30:29;1.50;;;0.93;;
18340;SDS011;9296;48.084;16.352;2023-10-31T18:38:09;3.72;;;1.15;;
18340;SDS011;9296;48.084;16.352;2023-10-31T18:40:37;3.78;;;1.25;;
18340;SDS011;9296;48.084;16.352;2023-10-31T18:49:15;2.83;;;1.30;;
18340;SDS011;9296;48.084;16.352;2023-10-31T18:52:07;3.22;;;1.50;;
18340;SDS011;9296;48.084;16.352;2023-10-31T18:54:38;2.97;;;1.40;;
18340;SDS011;9296;48.084;16.352;2023-10-31T18:57:09;3.03;;;1.30;;
18340;SDS011;9296;48.084;16.352;2023-10-31T18:59:37;1.95;;;1.42;;
18340;SDS011;9296;48.084;16.352;2023-10-31T19:07:08;3.05;;;1.42;;
18340;SDS011;9296;48.084;16.352;2023-10-31T19:09:49;2.63;;;1.40;;
18340;SDS011;9296;48.084;16.352;2023-10-31T19:12:18;4.57;;;1.60;;
18340;SDS011;9296;48.084;16.352;2023-10-31T19:18:06;3.63;;;1.50;;
18340;SDS011;9296;48.084;16.352;2023-10-31T19:20:46;2.08;;;1.42;;
18340;SDS011;9296;48.084;16.352;2023-10-31T19:28:57;2.97;;;1.27;;
18340;SDS011;9296;48.084;16.352;2023-10-31T19:44:31;4.32;;;1.30;;
18340;SDS011;9296;48.084;16.352;2023-10-31T19:55:37;2.65;;;1.05;;
18340;SDS011;9296;48.084;16.352;2023-10-31T20:01:07;3.35;;;1.20;;
18340;SDS011;9296;48.084;16.352;2023-10-31T20:03:35;2.33;;;1.20;;
18340;SDS011;9296;48.084;16.352;2023-10-31T20:06:03;2.95;;;1.30;;
18340;SDS011;9296;48.084;16.352;2023-10-31T20:08:31;2.45;;;1.20;;
18340;SDS011;9296;48.084;16.352;2023-10-31T20:11:02;4.15;;;1.35;;
18340;SDS011;9296;48.084;16.352;2023-10-31T20:13:36;5.80;;;1.10;;
18340;SDS011;9296;48.084;16.352;2023-10-31T20:16:04;1.08;;;0.85;;
18340;SDS011;9296;48.084;16.352;2023-10-31T20:18:33;4.38;;;1.23;;
18340;SDS011;9296;48.084;16.352;2023-10-31T20:21:00;1.88;;;1.10;;
18340;SDS011;9296;48.084;16.352;2023-10-31T20:23:27;2.40;;;0.98;;
18340;SDS011;9296;48.084;16.352;2023-10-31T20:25:56;4.20;;;1.25;;
18340;SDS011;9296;48.084;16.352;2023-10-31T20:31:27;1.40;;;1.20;;
18340;SDS011;9296;48.084;16.352;2023-10-31T20:33:56;2.42;;;1.45;;
18340;SDS011;9296;48.084;16.352;2023-10-31T20:36:24;2.38;;;1.27;;
18340;SDS011;9296;48.084;16.352;2023-10-31T20:38:51;3.33;;;1.20;;
18340;SDS011;9296;48.084;16.352;2023-10-31T20:41:19;2.53;;;1.15;;
18340;SDS011;9296;48.084;16.352;2023-10-31T20:46:49;1.75;;;1.40;;
18340;SDS011;9296;48.084;16.352;2023-10-31T20:49:18;3.30;;;1.40;;
18340;SDS011;9296;48.084;16.352;2023-10-31T20:51:46;3.92;;;1.65;;
18340;SDS011;9296;48.084;16.352;2023-10-31T20:54:18;2.47;;;1.70;;
18340;SDS011;9296;48.084;16.352;2023-10-31T20:59:21;2.25;;;1.42;;
18340;SDS011;9296;48.084;16.352;2023-10-31T21:01:48;2.47;;;1.30;;
18340;SDS011;9296;48.084;16.352;2023-10-31T21:07:09;1.80;;;1.33;;
18340;SDS011;9296;48.084;16.352;2023-10-31T21:09:39;2.25;;;1.20;;
18340;SDS011;9296;48.084;16.352;2023-10-31T21:12:06;1.85;;;1.30;;
18340;SDS011;9296;48.084;16.352;2023-10-31T21:20:22;1.65;;;1.13;;
18340;SDS011;9296;48.084;16.352;2023-10-31T21:22:56;1.33;;;1.10;;
18340;SDS011;9296;48.084;16.352;2023-10-31T21:25:23;2.55;;;1.00;;
18340;SDS011;9296;48.084;16.352;2023-10-31T21:27:51;2.03;;;1.00;;
18340;SDS011;9296;48.084;16.352;2023-10-31T21:35:55;2.38;;;1.35;;
18340;SDS011;9296;48.084;16.352;2023-10-31T21:38:24;1.75;;;1.38;;
18340;SDS011;9296;48.084;16.352;2023-10-31T21:40:56;1.50;;;1.05;;
18340;SDS011;9296;48.084;16.352;2023-10-31T21:46:47;1.75;;;1.00;;
18340;SDS011;9296;48.084;16.352;2023-10-31T21:49:17;1.90;;;1.08;;
18340;SDS011;9296;48.084;16.352;2023-10-31T21:51:44;1.02;;;0.90;;
18340;SDS011;9296;48.084;16.352;2023-10-31T21:54:13;1.42;;;1.20;;
18340;SDS011;9296;48.084;16.352;2023-10-31T21:56:40;2.38;;;1.08;;
18340;SDS011;9296;48.084;16.352;2023-10-31T21:59:07;2.08;;;1.05;;
18340;SDS011;9296;48.084;16.352;2023-10-31T22:01:42;2.15;;;1.10;;
18340;SDS011;9296;48.084;16.352;2023-10-31T22:04:10;2.30;;;1.00;;
18340;SDS011;9296;48.084;16.352;2023-10-31T22:06:45;2.08;;;0.85;;
18340;SDS011;9296;48.084;16.352;2023-10-31T22:09:18;1.17;;;0.90;;
18340;SDS011;9296;48.084;16.352;2023-10-31T22:11:59;0.93;;;0.90;;
18340;SDS011;9296;48.084;16.352;2023-10-31T22:14:27;2.88;;;1.10;;
18340;SDS011;9296;48.084;16.352;2023-10-31T22:16:54;1.98;;;1.08;;
18340;SDS011;9296;48.084;16.352;2023-10-31T22:19:21;1.77;;;1.10;;
18340;SDS011;9296;48.084;16.352;2023-10-31T22:21:49;2.05;;;1.10;;
18340;SDS011;9296;48.084;16.352;2023-10-31T22:24:23;4.38;;;1.00;;
18340;SDS011;9296;48.084;16.352;2023-10-31T22:26:52;2.28;;;1.00;;
18340;SDS011;9296;48.084;16.352;2023-10-31T22:32:25;2.78;;;0.93;;
18340;SDS011;9296;48.084;16.352;2023-10-31T22:34:52;1.77;;;0.80;;
18340;SDS011;9296;48.084;16.352;2023-10-31T22:37:19;1.80;;;0.80;;
18340;SDS011;9296;48.084;16.352;2023-10-31T22:39:48;1.30;;;1.00;;
18340;SDS011;9296;48.084;16.352;2023-10-31T22:42:15;2.67;;;0.90;;
18340;SDS011;9296;48.084;16.352;2023-10-31T22:44:42;2.13;;;1.13;;
18340;SDS011;9296;48.084;16.352;2023-10-31T22:47:11;2.53;;;1.05;;
18340;SDS011;9296;48.084;16.352;2023-10-31T23:07:40;2.20;;;1.42;;
18340;SDS011;9296;48.084;16.352;2023-10-31T23:15:25;2.42;;;2.00;;
18340;SDS011;9296;48.084;16.352;2023-10-31T23:18:14;4.13;;;2.25;;
18340;SDS011;9296;48.084;16.352;2023-10-31T23:21:09;2.60;;;1.75;;
18340;SDS011;9296;48.084;16.352;2023-10-31T23:24:29;2.83;;;2.05;;
18340;SDS011;9296;48.084;16.352;2023-10-31T23:29:51;2.50;;;2.20;;
18340;SDS011;9296;48.084;16.352;2023-10-31T23:32:19;2.80;;;2.35;;
18340;SDS011;9296;48.084;16.352;2023-10-31T23:34:46;3.65;;;2.15;;
18340;SDS011;9296;48.084;16.352;2023-10-31T23:37:14;3.40;;;1.90;;
18340;SDS011;9296;48.084;16.352;2023-10-31T23:39:43;2.75;;;1.90;;
18340;SDS011;9296;48.084;16.352;2023-10-31T23:42:12;3.92;;;2.25;;
18340;SDS011;9296;48.084;16.352;2023-10-31T23:44:39;2.05;;;1.50;;
18340;SDS011;9296;48.084;16.352;2023-10-31T23:47:07;2.33;;;1.83;;
18340;SDS011;9296;48.084;16.352;2023-10-31T23:49:34;3.00;;;1.70;;
18340;SDS011;9296;48.084;16.352;2023-10-31T23:54:27;2.13;;;1.55;;
18340;SDS011;9296;48.084;16.352;2023-10-31T23:56:56;2.65;;;1.60;;
18340;SDS011;9296;48.084;16.352;2023-10-31T23:59:29;1.83;;;1.33;;
